createdAt,value
2023-03-08T00:01:31.555Z,0.80
2023-03-08T00:04:00.991Z,0.80
2023-03-08T00:06:29.726Z,0.90
2023-03-08T00:09:00.750Z,0.90
2023-03-08T00:11:30.354Z,0.80
2023-03-08T00:14:01.570Z,0.70
2023-03-08T00:16:30.140Z,0.70
2023-03-08T00:18:58.541Z,0.70
2023-03-08T00:21:27.148Z,0.60
2023-03-08T00:23:56.111Z,0.60
2023-03-08T00:26:24.860Z,0.60
2023-03-08T00:28:53.644Z,0.60
2023-03-08T00:31:23.649Z,0.80
2023-03-08T00:33:55.845Z,0.90
2023-03-08T00:36:24.281Z,0.80
2023-03-08T00:38:53.377Z,0.80
2023-03-08T00:41:22.044Z,0.70
2023-03-08T00:43:50.874Z,0.60
2023-03-08T00:46:19.505Z,0.70
2023-03-08T00:48:49.308Z,0.60
2023-03-08T00:51:20.530Z,0.60
2023-03-08T00:53:49.176Z,0.50
2023-03-08T00:56:17.453Z,0.60
2023-03-08T00:58:46.950Z,0.50
2023-03-08T01:01:18.900Z,0.50
2023-03-08T01:03:51.731Z,0.50
2023-03-08T01:06:20.630Z,0.50
2023-03-08T01:08:49.130Z,0.40
2023-03-08T01:11:23.234Z,0.40
2023-03-08T01:13:53.642Z,0.40
2023-03-08T01:16:24.993Z,0.30
2023-03-08T01:18:57.305Z,0.30
2023-03-08T01:21:27.594Z,0.20
2023-03-08T01:23:57.408Z,0.20
2023-03-08T01:26:28.073Z,0.10
2023-03-08T01:28:58.198Z,0.10
2023-03-08T01:31:29.027Z,0.30
2023-03-08T01:34:00.192Z,0.20
2023-03-08T01:36:29.858Z,0.10
2023-03-08T01:39:01.510Z,0.10
2023-03-08T01:41:32.190Z,0.10
2023-03-08T01:44:01.024Z,0.10
2023-03-08T01:46:32.255Z,0.10
2023-03-08T01:49:25.682Z,0.10
2023-03-08T01:52:02.875Z,0.00
2023-03-08T01:54:37.990Z,0.00
2023-03-08T01:57:14.870Z,0.00
2023-03-08T01:59:46.084Z,-0.10
2023-03-08T02:02:14.561Z,-0.10
2023-03-08T02:04:45.275Z,0.00
2023-03-08T02:07:15.439Z,-0.10
2023-03-08T02:09:45.950Z,-0.10
2023-03-08T02:12:15.074Z,-0.10
2023-03-08T02:14:45.825Z,-0.10
2023-03-08T02:17:14.325Z,-0.10
2023-03-08T02:19:53.582Z,-0.10
2023-03-08T02:22:22.933Z,-0.10
2023-03-08T02:24:52.770Z,-0.20
2023-03-08T02:27:26.990Z,-0.20
2023-03-08T02:29:55.612Z,-0.10
2023-03-08T02:32:24.626Z,0.00
2023-03-08T02:34:54.516Z,0.00
2023-03-08T02:37:23.026Z,0.00
2023-03-08T02:39:54.246Z,0.00
2023-03-08T02:42:24.443Z,0.00
2023-03-08T02:44:52.834Z,0.10
2023-03-08T02:47:21.177Z,0.20
2023-03-08T02:49:49.641Z,0.20
2023-03-08T02:52:18.220Z,0.30
2023-03-08T02:54:46.573Z,0.30
2023-03-08T02:57:16.423Z,0.30
2023-03-08T02:59:46.902Z,0.40
2023-03-08T03:02:16.496Z,0.30
2023-03-08T03:04:45.028Z,0.30
2023-03-08T03:07:14.044Z,0.30
2023-03-08T03:09:42.517Z,0.30
2023-03-08T03:12:10.911Z,0.40
2023-03-08T03:14:43.356Z,0.40
2023-03-08T03:17:11.720Z,0.40
2023-03-08T03:19:40.188Z,0.40
2023-03-08T03:22:08.537Z,0.40
2023-03-08T03:24:37.604Z,0.30
2023-03-08T03:27:07.375Z,0.30
2023-03-08T03:29:39.283Z,0.30
2023-03-08T03:32:16.457Z,0.40
2023-03-08T03:34:45.346Z,0.40
2023-03-08T03:37:14.399Z,0.40
2023-03-08T03:39:43.735Z,0.50
2023-03-08T03:42:15.403Z,0.40
2023-03-08T03:44:51.381Z,0.50
2023-03-08T03:47:23.785Z,0.50
2023-03-08T03:49:56.835Z,0.50
2023-03-08T03:52:26.684Z,0.50
2023-03-08T03:55:01.457Z,0.40
2023-03-08T03:57:30.614Z,0.40
2023-03-08T03:59:59.628Z,0.50
2023-03-08T04:02:30.087Z,0.50
2023-03-08T04:05:02.629Z,0.50
2023-03-08T04:07:34.799Z,0.50
2023-03-08T04:10:03.925Z,0.50
2023-03-08T04:12:33.556Z,0.50
2023-03-08T04:15:01.912Z,0.60
2023-03-08T04:17:34.670Z,0.50
2023-03-08T04:20:04.309Z,0.60
2023-03-08T04:22:38.317Z,0.70
2023-03-08T04:25:19.316Z,0.70
2023-03-08T04:27:54.827Z,0.70
2023-03-08T04:30:23.541Z,0.70
2023-03-08T04:32:54.607Z,0.80
2023-03-08T04:35:28.885Z,0.70
2023-03-08T04:37:57.296Z,0.80
2023-03-08T04:40:28.026Z,0.70
2023-03-08T04:43:00.341Z,0.70
2023-03-08T04:45:35.715Z,0.70
2023-03-08T04:48:10.271Z,0.70
2023-03-08T04:50:39.380Z,0.70
2023-03-08T04:53:09.438Z,0.80
2023-03-08T04:55:38.209Z,0.80
2023-03-08T04:58:07.466Z,0.70
2023-03-08T05:00:35.920Z,0.70
2023-03-08T05:03:06.169Z,0.70
2023-03-08T05:05:35.876Z,0.60
2023-03-08T05:08:05.259Z,0.60
2023-03-08T05:10:35.689Z,0.60
2023-03-08T05:13:04.292Z,0.60
2023-03-08T05:15:32.582Z,0.60
2023-03-08T05:18:01.022Z,0.60
2023-03-08T05:20:29.454Z,0.60
2023-03-08T05:22:59.665Z,0.60
2023-03-08T05:25:44.959Z,0.70
2023-03-08T05:28:15.869Z,0.70
2023-03-08T05:30:45.757Z,0.70
2023-03-08T05:33:15.380Z,0.70
2023-03-08T05:35:43.997Z,0.70
2023-03-08T05:38:14.407Z,0.70
2023-03-08T05:40:43.083Z,0.70
2023-03-08T05:43:13.181Z,0.80
2023-03-08T05:45:42.248Z,0.70
2023-03-08T05:48:11.157Z,0.70
2023-03-08T05:50:39.696Z,0.80
2023-03-08T05:53:08.044Z,0.80
2023-03-08T05:55:37.734Z,0.90
2023-03-08T05:58:06.728Z,0.90
2023-03-08T06:00:35.830Z,0.90
2023-03-08T06:03:04.490Z,0.90
2023-03-08T06:05:36.058Z,0.90
2023-03-08T06:08:05.108Z,1.00
2023-03-08T06:10:34.373Z,1.00
2023-03-08T06:13:04.495Z,0.90
2023-03-08T06:15:33.137Z,0.90
2023-03-08T06:18:01.759Z,0.90
2023-03-08T06:20:30.001Z,0.90
2023-03-08T06:22:58.344Z,0.80
2023-03-08T06:25:26.614Z,0.80
2023-03-08T06:27:55.583Z,0.80
2023-03-08T06:30:34.065Z,0.80
2023-03-08T06:33:04.805Z,0.80
2023-03-08T06:35:33.061Z,0.80
2023-03-08T06:38:03.565Z,0.80
2023-03-08T06:40:33.373Z,0.90
2023-03-08T06:43:01.663Z,0.90
2023-03-08T06:45:30.273Z,0.90
2023-03-08T06:47:59.954Z,1.00
2023-03-08T06:50:30.249Z,1.00
2023-03-08T06:52:58.494Z,1.00
2023-03-08T06:55:41.944Z,0.90
2023-03-08T06:58:10.846Z,0.90
2023-03-08T07:00:39.123Z,1.00
2023-03-08T07:03:08.723Z,1.10
2023-03-08T07:05:37.006Z,1.20
2023-03-08T07:08:06.134Z,1.10
2023-03-08T07:10:35.316Z,1.30
2023-03-08T07:13:03.856Z,1.30
2023-03-08T07:15:32.132Z,1.30
2023-03-08T07:18:00.426Z,1.30
2023-03-08T07:20:30.059Z,1.30
2023-03-08T07:23:01.556Z,1.30
2023-03-08T07:25:30.505Z,1.30
2023-03-08T07:28:00.350Z,1.30
2023-03-08T07:30:29.108Z,1.30
2023-03-08T07:32:57.402Z,1.30
2023-03-08T07:35:25.620Z,1.30
2023-03-08T07:37:55.309Z,1.30
2023-03-08T07:40:24.071Z,1.30
2023-03-08T07:42:52.248Z,1.40
2023-03-08T07:45:43.512Z,1.30
2023-03-08T07:48:11.760Z,1.40
2023-03-08T07:50:39.976Z,1.50
2023-03-08T07:53:09.565Z,1.50
2023-03-08T07:55:38.467Z,1.60
2023-03-08T07:58:07.031Z,1.70
2023-03-08T08:00:35.344Z,1.70
2023-03-08T08:03:03.589Z,1.60
2023-03-08T08:05:31.926Z,1.70
2023-03-08T08:08:00.253Z,1.70
2023-03-08T08:10:30.765Z,1.60
2023-03-08T08:12:59.132Z,1.80
2023-03-08T08:15:27.331Z,1.90
2023-03-08T08:17:55.548Z,1.90
2023-03-08T08:20:25.160Z,1.90
2023-03-08T08:22:53.607Z,1.90
2023-03-08T08:25:22.662Z,1.90
2023-03-08T08:27:53.109Z,1.90
2023-03-08T08:30:21.616Z,1.80
2023-03-08T08:32:50.102Z,1.80
2023-03-08T08:35:18.673Z,1.80
2023-03-08T08:37:46.905Z,1.90
2023-03-08T08:40:15.431Z,2.00
2023-03-08T08:42:43.715Z,2.10
2023-03-08T08:45:13.744Z,2.40
2023-03-08T08:47:42.122Z,2.50
2023-03-08T08:50:14.070Z,2.50
2023-03-08T08:52:42.486Z,2.60
2023-03-08T08:55:11.320Z,2.60
2023-03-08T08:57:39.550Z,2.70
2023-03-08T09:00:10.132Z,2.80
2023-03-08T09:02:39.789Z,2.80
2023-03-08T09:05:08.820Z,2.80
2023-03-08T09:07:38.973Z,2.80
2023-03-08T09:10:10.081Z,2.90
2023-03-08T09:12:38.627Z,2.90
2023-03-08T09:15:10.111Z,2.90
2023-03-08T09:17:40.143Z,2.70
2023-03-08T09:20:10.725Z,2.60
2023-03-08T09:22:39.770Z,2.40
2023-03-08T09:25:10.393Z,2.40
2023-03-08T09:27:40.009Z,2.10
2023-03-08T09:30:13.252Z,2.20
2023-03-08T09:32:42.877Z,2.10
2023-03-08T09:35:11.573Z,2.00
2023-03-08T09:37:39.854Z,2.00
2023-03-08T09:40:18.331Z,2.10
2023-03-08T09:42:46.910Z,2.20
2023-03-08T09:45:24.892Z,2.20
2023-03-08T09:48:04.825Z,2.10
2023-03-08T09:50:43.673Z,2.10
2023-03-08T09:53:24.130Z,2.20
2023-03-08T09:55:57.842Z,2.20
2023-03-08T09:58:42.911Z,2.20
2023-03-08T10:01:37.320Z,2.20
2023-03-08T10:04:34.221Z,2.10
2023-03-08T10:07:25.325Z,2.10
2023-03-08T10:10:18.578Z,2.00
2023-03-08T10:13:06.831Z,2.00
2023-03-08T10:15:42.530Z,2.10
2023-03-08T10:18:19.281Z,2.20
2023-03-08T10:20:49.382Z,2.30
2023-03-08T10:23:20.995Z,2.30
2023-03-08T10:25:51.599Z,2.30
2023-03-08T10:28:23.807Z,2.50
2023-03-08T10:30:54.877Z,2.60
2023-03-08T10:33:26.118Z,2.60
2023-03-08T10:36:02.105Z,2.60
2023-03-08T10:38:32.975Z,2.60
2023-03-08T10:41:04.232Z,2.60
2023-03-08T10:43:37.865Z,2.60
2023-03-08T10:46:12.911Z,2.70
2023-03-08T10:48:41.819Z,2.70
2023-03-08T10:51:20.982Z,2.80
2023-03-08T10:53:57.878Z,2.90
2023-03-08T10:56:35.056Z,2.90
2023-03-08T10:59:05.753Z,2.90
2023-03-08T11:01:36.778Z,3.00
2023-03-08T11:04:07.711Z,3.10
2023-03-08T11:06:37.272Z,3.20
2023-03-08T11:09:22.141Z,3.30
2023-03-08T11:11:50.801Z,3.30
2023-03-08T11:14:19.696Z,3.30
2023-03-08T11:17:09.275Z,3.40
2023-03-08T11:19:59.691Z,3.50
2023-03-08T11:22:47.579Z,3.60
2023-03-08T11:25:34.903Z,3.60
2023-03-08T11:28:43.672Z,3.70
2023-03-08T11:31:23.778Z,3.70
2023-03-08T11:34:18.641Z,3.70
2023-03-08T11:36:59.618Z,3.70
2023-03-08T11:39:34.310Z,3.80
2023-03-08T11:42:16.280Z,3.90
2023-03-08T11:45:06.641Z,4.00
2023-03-08T11:48:12.516Z,4.00
2023-03-08T11:50:48.821Z,4.10
2023-03-08T11:53:29.918Z,4.20
2023-03-08T11:56:35.785Z,4.30
2023-03-08T11:59:12.225Z,4.30
2023-03-08T12:01:48.432Z,4.20
2023-03-08T12:04:22.318Z,4.20
2023-03-08T12:06:51.160Z,4.20
2023-03-08T12:09:28.676Z,4.30
2023-03-08T12:12:04.662Z,4.20
2023-03-08T12:14:36.239Z,4.00
2023-03-08T12:17:14.341Z,4.10
2023-03-08T12:19:45.808Z,4.10
2023-03-08T12:22:39.355Z,4.20
2023-03-08T12:25:21.955Z,4.10
2023-03-08T12:28:00.417Z,4.30
2023-03-08T12:30:45.136Z,4.50
2023-03-08T12:33:16.219Z,4.60
2023-03-08T12:35:54.419Z,4.60
2023-03-08T12:38:39.280Z,4.50
2023-03-08T12:41:25.026Z,4.30
2023-03-08T12:44:05.548Z,4.20
2023-03-08T12:47:02.242Z,4.30
2023-03-08T12:49:35.080Z,4.30
2023-03-08T12:52:07.292Z,4.40
2023-03-08T12:54:37.324Z,4.30
2023-03-08T12:57:21.075Z,4.20
2023-03-08T12:59:59.316Z,4.10
2023-03-08T13:02:31.666Z,4.10
2023-03-08T13:05:33.061Z,4.10
2023-03-08T13:08:24.479Z,4.20
2023-03-08T13:11:11.278Z,4.30
2023-03-08T13:13:53.344Z,4.30
2023-03-08T13:16:33.259Z,4.40
2023-03-08T13:19:27.449Z,4.50
2023-03-08T13:22:10.215Z,4.60
2023-03-08T13:24:47.956Z,4.70
2023-03-08T13:27:35.241Z,4.70
2023-03-08T13:30:24.164Z,4.80
2023-03-08T13:32:54.368Z,4.80
2023-03-08T13:35:23.395Z,4.70
2023-03-08T13:37:58.816Z,4.60
2023-03-08T13:40:30.388Z,4.60
2023-03-08T13:43:02.418Z,4.60
2023-03-08T13:45:30.923Z,4.70
2023-03-08T13:48:07.093Z,4.80
2023-03-08T13:50:39.362Z,4.90
2023-03-08T13:53:15.349Z,5.00
2023-03-08T13:55:49.529Z,5.00
2023-03-08T13:58:32.132Z,5.00
2023-03-08T14:01:04.075Z,5.00
2023-03-08T14:03:34.369Z,4.90
2023-03-08T14:06:03.030Z,4.90
2023-03-08T14:08:31.466Z,4.80
2023-03-08T14:11:04.998Z,4.90
2023-03-08T14:13:37.400Z,4.90
2023-03-08T14:16:08.632Z,4.80
2023-03-08T14:18:43.354Z,4.80
2023-03-08T14:21:18.797Z,4.80
2023-03-08T14:23:51.558Z,4.80
2023-03-08T14:26:30.271Z,4.60
2023-03-08T14:29:14.972Z,4.60
2023-03-08T14:31:56.830Z,4.50
2023-03-08T14:34:29.573Z,4.50
2023-03-08T14:37:02.427Z,4.30
2023-03-08T14:39:33.537Z,4.30
2023-03-08T14:42:12.547Z,4.20
2023-03-08T14:44:40.940Z,4.30
2023-03-08T14:47:11.707Z,4.30
2023-03-08T14:49:41.589Z,4.10
2023-03-08T14:52:21.907Z,4.00
2023-03-08T14:54:50.627Z,4.10
2023-03-08T14:57:22.867Z,4.00
2023-03-08T14:59:52.694Z,4.20
2023-03-08T15:02:21.167Z,4.30
2023-03-08T15:04:51.060Z,4.20
2023-03-08T15:07:23.688Z,4.30
2023-03-08T15:09:53.223Z,4.40
2023-03-08T15:12:21.557Z,4.50
2023-03-08T15:14:49.957Z,4.50
2023-03-08T15:17:18.473Z,4.50
2023-03-08T15:19:46.837Z,4.40
2023-03-08T15:22:18.876Z,4.40
2023-03-08T15:24:47.206Z,4.30
2023-03-08T15:27:17.509Z,4.10
2023-03-08T15:29:46.256Z,4.10
2023-03-08T15:32:14.666Z,4.10
2023-03-08T15:34:43.242Z,4.30
2023-03-08T15:37:16.303Z,4.30
2023-03-08T15:39:44.883Z,4.40
2023-03-08T15:42:13.514Z,4.40
2023-03-08T15:44:41.961Z,4.40
2023-03-08T15:47:11.253Z,4.50
2023-03-08T15:49:39.620Z,4.60
2023-03-08T15:52:08.896Z,4.60
2023-03-08T15:54:40.523Z,4.50
2023-03-08T15:57:08.999Z,4.40
2023-03-08T15:59:37.280Z,4.30
2023-03-08T16:02:05.823Z,4.30
2023-03-08T16:04:34.441Z,4.30
2023-03-08T16:07:02.700Z,4.30
2023-03-08T16:09:30.979Z,4.40
2023-03-08T16:12:00.554Z,4.30
2023-03-08T16:14:29.255Z,4.30
2023-03-08T16:16:57.933Z,4.10
2023-03-08T16:19:26.266Z,4.10
2023-03-08T16:21:54.659Z,4.10
2023-03-08T16:24:22.944Z,4.00
2023-03-08T16:26:51.259Z,4.10
2023-03-08T16:29:21.468Z,4.10
2023-03-08T16:31:50.582Z,4.10
2023-03-08T16:34:19.834Z,4.10
2023-03-08T16:36:48.325Z,4.10
2023-03-08T16:39:17.120Z,4.10
2023-03-08T16:41:45.635Z,3.90
2023-03-08T16:44:24.217Z,3.90
2023-03-08T16:46:53.204Z,3.70
2023-03-08T16:49:27.986Z,3.70
2023-03-08T16:51:56.617Z,3.70
2023-03-08T16:54:25.321Z,3.70
2023-03-08T16:56:53.854Z,3.60
2023-03-08T16:59:23.863Z,3.60
2023-03-08T17:01:52.209Z,3.50
2023-03-08T17:04:22.612Z,3.40
2023-03-08T17:06:51.580Z,3.50
2023-03-08T17:09:19.921Z,3.50
2023-03-08T17:11:48.341Z,3.30
2023-03-08T17:14:17.604Z,3.40
2023-03-08T17:16:47.261Z,3.30
2023-03-08T17:19:15.532Z,3.30
2023-03-08T17:21:44.138Z,3.20
2023-03-08T17:24:15.577Z,3.20
2023-03-08T17:26:47.176Z,3.10
2023-03-08T17:29:16.208Z,3.10
2023-03-08T17:31:45.941Z,3.20
2023-03-08T17:34:14.499Z,3.30
2023-03-08T17:36:43.236Z,3.20
2023-03-08T17:39:11.687Z,3.20
2023-03-08T17:41:40.079Z,3.10
2023-03-08T17:44:08.554Z,3.10
2023-03-08T17:46:37.038Z,3.10
2023-03-08T17:49:06.766Z,3.10
2023-03-08T17:51:35.574Z,3.10
2023-03-08T17:54:04.897Z,3.00
2023-03-08T17:56:35.544Z,3.10
2023-03-08T17:59:04.194Z,3.10
2023-03-08T18:01:33.457Z,3.00
2023-03-08T18:04:02.621Z,3.00
2023-03-08T18:06:38.532Z,3.00
2023-03-08T18:09:09.808Z,3.00
2023-03-08T18:11:38.363Z,3.00
2023-03-08T18:14:07.838Z,3.00
2023-03-08T18:16:36.715Z,3.10
2023-03-08T18:19:07.255Z,3.10
2023-03-08T18:21:40.851Z,3.00
2023-03-08T18:24:12.832Z,3.00
2023-03-08T18:26:41.239Z,3.00
2023-03-08T18:29:09.773Z,3.00
2023-03-08T18:31:38.461Z,3.00
2023-03-08T18:34:08.008Z,2.90
2023-03-08T18:36:38.603Z,2.90
2023-03-08T18:39:13.091Z,2.90
2023-03-08T18:41:41.575Z,2.90
2023-03-08T18:44:12.999Z,2.90
2023-03-08T18:46:41.326Z,2.90
2023-03-08T18:49:13.372Z,2.90
2023-03-08T18:51:44.486Z,2.90
2023-03-08T18:54:17.130Z,2.90
2023-03-08T18:56:45.582Z,2.90
2023-03-08T18:59:15.117Z,2.80
2023-03-08T19:01:45.176Z,2.80
2023-03-08T19:04:14.359Z,2.70
2023-03-08T19:06:46.468Z,2.60
2023-03-08T19:09:17.332Z,2.60
2023-03-08T19:11:47.898Z,2.50
2023-03-08T19:14:18.351Z,2.50
2023-03-08T19:16:46.897Z,2.50
2023-03-08T19:19:17.925Z,2.50
2023-03-08T19:21:49.857Z,2.50
2023-03-08T19:24:21.226Z,2.40
2023-03-08T19:26:53.140Z,2.50
2023-03-08T19:29:24.613Z,2.40
2023-03-08T19:31:55.557Z,2.40
2023-03-08T19:34:27.002Z,2.30
2023-03-08T19:36:58.267Z,2.30
2023-03-08T19:39:31.379Z,2.40
2023-03-08T19:42:02.590Z,2.20
2023-03-08T19:44:31.726Z,2.20
2023-03-08T19:47:01.215Z,2.20
2023-03-08T19:49:32.578Z,2.20
2023-03-08T19:52:06.449Z,2.20
2023-03-08T19:54:35.303Z,2.20
2023-03-08T19:57:04.006Z,2.10
2023-03-08T19:59:32.608Z,2.10
2023-03-08T20:02:00.949Z,2.00
2023-03-08T20:04:29.921Z,2.00
2023-03-08T20:07:02.599Z,2.10
2023-03-08T20:09:30.832Z,2.00
2023-03-08T20:11:59.324Z,2.00
2023-03-08T20:14:28.403Z,1.90
2023-03-08T20:16:58.944Z,2.00
2023-03-08T20:19:27.238Z,2.10
2023-03-08T20:21:55.444Z,2.10
2023-03-08T20:24:25.312Z,2.10
2023-03-08T20:26:53.551Z,2.00
2023-03-08T20:29:21.829Z,2.00
2023-03-08T20:31:50.212Z,2.10
2023-03-08T20:34:19.825Z,2.20
2023-03-08T20:36:48.339Z,2.20
2023-03-08T20:39:18.165Z,2.20
2023-03-08T20:41:47.722Z,2.20
2023-03-08T20:44:15.955Z,2.10
2023-03-08T20:46:44.213Z,2.10
2023-03-08T20:49:12.580Z,2.10
2023-03-08T20:51:41.052Z,2.10
2023-03-08T20:54:10.880Z,2.20
2023-03-08T20:56:39.352Z,2.20
2023-03-08T20:59:08.986Z,2.10
2023-03-08T21:01:37.801Z,2.10
2023-03-08T21:04:06.886Z,2.10
2023-03-08T21:06:35.137Z,2.10
2023-03-08T21:09:04.292Z,2.10
2023-03-08T21:11:32.700Z,2.10
2023-03-08T21:14:01.117Z,2.10
2023-03-08T21:16:31.625Z,2.10
2023-03-08T21:19:02.449Z,2.10
2023-03-08T21:21:35.322Z,2.10
2023-03-08T21:24:07.530Z,2.10
2023-03-08T21:26:36.458Z,2.10
2023-03-08T21:29:08.191Z,2.00
2023-03-08T21:31:42.444Z,2.10
2023-03-08T21:34:13.325Z,2.00
2023-03-08T21:36:42.076Z,2.00
2023-03-08T21:39:11.781Z,2.00
2023-03-08T21:41:44.633Z,2.00
2023-03-08T21:44:16.748Z,2.00
2023-03-08T21:46:47.470Z,2.00
2023-03-08T21:49:19.537Z,1.90
2023-03-08T21:51:47.829Z,1.80
2023-03-08T21:54:16.397Z,1.80
2023-03-08T21:56:44.715Z,1.80
2023-03-08T21:59:13.517Z,1.80
2023-03-08T22:01:44.131Z,1.80
2023-03-08T22:04:14.226Z,1.80
2023-03-08T22:06:42.855Z,1.70
2023-03-08T22:09:11.611Z,1.80
2023-03-08T22:11:40.311Z,1.80
2023-03-08T22:14:08.692Z,1.80
2023-03-08T22:16:37.770Z,1.90
2023-03-08T22:19:06.917Z,1.80
2023-03-08T22:21:36.497Z,1.80
2023-03-08T22:24:05.969Z,1.80
2023-03-08T22:26:34.299Z,1.90
2023-03-08T22:29:02.590Z,1.90
2023-03-08T22:31:31.889Z,1.90
2023-03-08T22:34:01.291Z,1.90
2023-03-08T22:36:29.829Z,1.90
2023-03-08T22:38:59.463Z,2.00
2023-03-08T22:41:29.077Z,2.00
2023-03-08T22:43:57.344Z,2.10
2023-03-08T22:46:28.409Z,2.00
2023-03-08T22:48:58.777Z,1.90
2023-03-08T22:51:28.618Z,1.90
2023-03-08T22:53:58.990Z,1.90
2023-03-08T22:56:30.613Z,1.80
2023-03-08T22:58:59.201Z,1.70
2023-03-08T23:01:29.996Z,1.80
2023-03-08T23:04:00.298Z,1.70
2023-03-08T23:06:31.682Z,1.60
2023-03-08T23:09:02.215Z,1.60
2023-03-08T23:11:32.039Z,1.60
2023-03-08T23:14:00.624Z,1.50
2023-03-08T23:16:28.996Z,1.60
2023-03-08T23:18:57.783Z,1.60
2023-03-08T23:21:30.241Z,1.60
2023-03-08T23:23:58.779Z,1.50
2023-03-08T23:26:28.672Z,1.50
2023-03-08T23:29:03.113Z,1.50
2023-03-08T23:31:35.122Z,1.40
2023-03-08T23:34:06.558Z,1.40
2023-03-08T23:36:35.703Z,1.30
2023-03-08T23:39:04.480Z,1.40
2023-03-08T23:41:33.893Z,1.30
2023-03-08T23:44:04.388Z,1.30
2023-03-08T23:46:33.284Z,1.30
2023-03-08T23:49:02.627Z,1.30
2023-03-08T23:51:34.180Z,1.30
2023-03-08T23:54:04.116Z,1.40
2023-03-08T23:56:38.659Z,1.50
2023-03-08T23:59:12.594Z,1.40
